N978PJ GOBD-FEFF
Flight info
| Callsign | N978PJ |
|---|---|
| Flight time | 4h 34m |
| Altitude | 45000 |
| Route | GOBD/19 NURA1H SISNU UA601 TD A601 BKO UA601 BD A601 NANGA UA601 TLE UM566 KELEX UR984 LAG UL433 MOTET L433 LURTI KORI1D RNV16 FEFF/16 |
| Aircraft | C750/M-SDE3FGIJ1KRWXY/LB1 |
Departure
| Time | 2026-05-05 07:59 |
|---|---|
| Airport | Blaise Diagne International Airport (GOBD) |
Arrival
| Time | 2026-05-05 12:33 |
|---|---|
| Airport | Bangui M'Poko International Airport (FEFF) |
| Time | Latitude | Longitude | Altitude | Speed | Heading |
|---|---|---|---|---|---|
| 2026-05-05 07:55 | 14.68684 | -17.07042 | 298 ft | 0 kts | 265° |
| 2026-05-05 07:56 | 14.68683 | -17.07050 | 298 ft | 4 kts | 265° |
| 2026-05-05 07:56 | 14.68678 | -17.07116 | 299 ft | 14 kts | 264° |
| 2026-05-05 07:56 | 14.68668 | -17.07231 | 299 ft | 16 kts | 264° |
| 2026-05-05 07:57 | 14.68598 | -17.07298 | 299 ft | 14 kts | 180° |
| 2026-05-05 07:57 | 14.68580 | -17.07298 | 299 ft | 0 kts | 179° |
| 2026-05-05 07:58 | 14.68556 | -17.07297 | 299 ft | 23 kts | 179° |
| 2026-05-05 07:58 | 14.68039 | -17.07292 | 298 ft | 123 kts | 179° |
| 2026-05-05 07:58 | 14.66993 | -17.07283 | 357 ft | 167 kts | 180° |
| 2026-05-05 07:59 | 14.65762 | -17.07280 | 737 ft | 189 kts | 181° |
| 2026-05-05 07:59 | 14.64335 | -17.07277 | 1099 ft | 221 kts | 181° |
| 2026-05-05 07:59 | 14.62710 | -17.07225 | 1652 ft | 241 kts | 181° |
| 2026-05-05 07:59 | 14.61043 | -17.07212 | 2673 ft | 239 kts | 183° |
| 2026-05-05 08:00 | 14.59367 | -17.07215 | 3538 ft | 243 kts | 181° |
| 2026-05-05 08:00 | 14.57668 | -17.07199 | 4444 ft | 245 kts | 179° |
| 2026-05-05 08:00 | 14.55964 | -17.07132 | 5314 ft | 247 kts | 174° |
| 2026-05-05 08:00 | 14.54256 | -17.06842 | 6113 ft | 250 kts | 167° |
| 2026-05-05 08:01 | 14.52559 | -17.06414 | 6919 ft | 252 kts | 163° |
| 2026-05-05 08:01 | 14.51096 | -17.05423 | 7612 ft | 257 kts | 128° |
| 2026-05-05 08:01 | 14.50366 | -17.03759 | 8550 ft | 256 kts | 105° |
| 2026-05-05 08:01 | 14.50176 | -17.01930 | 9438 ft | 259 kts | 90° |
| 2026-05-05 08:02 | 14.50284 | -17.00058 | 10231 ft | 263 kts | 86° |
| 2026-05-05 08:02 | 14.50381 | -16.98164 | 10980 ft | 266 kts | 89° |
| 2026-05-05 08:02 | 14.50382 | -16.96242 | 11623 ft | 270 kts | 91° |
| 2026-05-05 08:02 | 14.50372 | -16.94295 | 12265 ft | 273 kts | 90° |
| 2026-05-05 08:03 | 14.50391 | -16.92330 | 12925 ft | 276 kts | 90° |
| 2026-05-05 08:03 | 14.50386 | -16.90343 | 13558 ft | 279 kts | 94° |
| 2026-05-05 08:03 | 14.50171 | -16.88348 | 14157 ft | 281 kts | 100° |
| 2026-05-05 08:03 | 14.49791 | -16.86358 | 14714 ft | 284 kts | 103° |
| 2026-05-05 08:04 | 14.49563 | -16.84318 | 15229 ft | 289 kts | 93° |
| 2026-05-05 08:04 | 14.49515 | -16.82238 | 15808 ft | 292 kts | 94° |
| 2026-05-05 08:04 | 14.49271 | -16.80151 | 16370 ft | 295 kts | 102° |
| 2026-05-05 08:04 | 14.48785 | -16.78088 | 16965 ft | 298 kts | 106° |
| 2026-05-05 08:05 | 14.48291 | -16.75999 | 17558 ft | 302 kts | 103° |
| 2026-05-05 08:05 | 14.47879 | -16.73861 | 18168 ft | 306 kts | 102° |
| 2026-05-05 08:05 | 14.47471 | -16.71695 | 18706 ft | 310 kts | 103° |
| 2026-05-05 08:05 | 14.47024 | -16.69508 | 19238 ft | 313 kts | 104° |
| 2026-05-05 08:06 | 14.46565 | -16.67295 | 19782 ft | 318 kts | 104° |
| 2026-05-05 08:06 | 14.46112 | -16.65050 | 20325 ft | 322 kts | 104° |
| 2026-05-05 08:06 | 14.45656 | -16.62773 | 20871 ft | 326 kts | 104° |
| 2026-05-05 08:06 | 14.45191 | -16.60471 | 21417 ft | 330 kts | 104° |
| 2026-05-05 08:07 | 14.44716 | -16.58135 | 21969 ft | 335 kts | 105° |
| 2026-05-05 08:07 | 14.44236 | -16.55771 | 22519 ft | 339 kts | 105° |
| 2026-05-05 08:07 | 14.43752 | -16.53377 | 23075 ft | 343 kts | 105° |
| 2026-05-05 08:07 | 14.43260 | -16.50951 | 23607 ft | 348 kts | 105° |
| 2026-05-05 08:08 | 14.42761 | -16.48496 | 24057 ft | 352 kts | 105° |
| 2026-05-05 08:08 | 14.42257 | -16.46012 | 24518 ft | 356 kts | 105° |
| 2026-05-05 08:08 | 14.41747 | -16.43498 | 24978 ft | 360 kts | 104° |
| 2026-05-05 08:08 | 14.41231 | -16.40959 | 25431 ft | 364 kts | 104° |
| 2026-05-05 08:09 | 14.40708 | -16.38386 | 25896 ft | 368 kts | 104° |
| 2026-05-05 08:09 | 14.40179 | -16.35786 | 26350 ft | 372 kts | 104° |
| 2026-05-05 08:09 | 14.39644 | -16.33159 | 26817 ft | 376 kts | 104° |
| 2026-05-05 08:09 | 14.39102 | -16.30500 | 27272 ft | 381 kts | 104° |
| 2026-05-05 08:10 | 14.38555 | -16.27817 | 27725 ft | 385 kts | 104° |
| 2026-05-05 08:10 | 14.38002 | -16.25102 | 28188 ft | 389 kts | 103° |
| 2026-05-05 08:10 | 14.37442 | -16.22361 | 28634 ft | 393 kts | 103° |
| 2026-05-05 08:10 | 14.36877 | -16.19593 | 29084 ft | 397 kts | 103° |
| 2026-05-05 08:11 | 14.36305 | -16.16795 | 29520 ft | 401 kts | 103° |
| 2026-05-05 08:11 | 14.35727 | -16.13965 | 29968 ft | 405 kts | 103° |
| 2026-05-05 08:11 | 14.35144 | -16.11116 | 30347 ft | 408 kts | 103° |
| 2026-05-05 08:11 | 14.34557 | -16.08247 | 30732 ft | 411 kts | 104° |
| 2026-05-05 08:12 | 14.33963 | -16.05351 | 31108 ft | 414 kts | 104° |
| 2026-05-05 08:12 | 14.33366 | -16.02439 | 31480 ft | 417 kts | 104° |
| 2026-05-05 08:12 | 14.32765 | -15.99509 | 31847 ft | 420 kts | 104° |
| 2026-05-05 08:12 | 14.32157 | -15.96548 | 32200 ft | 423 kts | 104° |
| 2026-05-05 08:13 | 14.31545 | -15.93569 | 32554 ft | 426 kts | 104° |
| 2026-05-05 08:13 | 14.30928 | -15.90565 | 32900 ft | 430 kts | 104° |
| 2026-05-05 08:13 | 14.30306 | -15.87540 | 33246 ft | 433 kts | 104° |
| 2026-05-05 08:13 | 14.29678 | -15.84490 | 33584 ft | 437 kts | 104° |
| 2026-05-05 08:14 | 14.29045 | -15.81415 | 33916 ft | 441 kts | 104° |
| 2026-05-05 08:14 | 14.28404 | -15.78308 | 34222 ft | 444 kts | 104° |
| 2026-05-05 08:14 | 14.27762 | -15.75192 | 34580 ft | 445 kts | 104° |
| 2026-05-05 08:14 | 14.27119 | -15.72073 | 34931 ft | 446 kts | 105° |
| 2026-05-05 08:15 | 14.26470 | -15.68935 | 35274 ft | 448 kts | 105° |
| 2026-05-05 08:15 | 14.25820 | -15.65790 | 35629 ft | 449 kts | 105° |
| 2026-05-05 08:15 | 14.25168 | -15.62638 | 35975 ft | 450 kts | 105° |
| 2026-05-05 08:15 | 14.24514 | -15.59476 | 36339 ft | 451 kts | 105° |
| 2026-05-05 08:16 | 14.23859 | -15.56314 | 36681 ft | 453 kts | 106° |
| 2026-05-05 08:16 | 14.23193 | -15.53130 | 36993 ft | 455 kts | 107° |
| 2026-05-05 08:16 | 14.22491 | -15.49952 | 37356 ft | 455 kts | 107° |
| 2026-05-05 08:16 | 14.21738 | -15.46777 | 37684 ft | 456 kts | 109° |
| 2026-05-05 08:17 | 14.20962 | -15.43603 | 38027 ft | 457 kts | 109° |
| 2026-05-05 08:17 | 14.20119 | -15.40439 | 38363 ft | 458 kts | 111° |
| 2026-05-05 08:17 | 14.19231 | -15.37286 | 38689 ft | 459 kts | 111° |
| 2026-05-05 08:17 | 14.18369 | -15.34108 | 38942 ft | 462 kts | 110° |
| 2026-05-05 08:18 | 14.17534 | -15.30898 | 39164 ft | 465 kts | 110° |
| 2026-05-05 08:18 | 14.16680 | -15.27675 | 39416 ft | 467 kts | 110° |
| 2026-05-05 08:18 | 14.15799 | -15.24441 | 39666 ft | 470 kts | 110° |
| 2026-05-05 08:18 | 14.14917 | -15.21192 | 39925 ft | 472 kts | 110° |
| 2026-05-05 08:19 | 14.14060 | -15.17963 | 40580 ft | 461 kts | 110° |
| 2026-05-05 08:19 | 14.13216 | -15.14791 | 40987 ft | 459 kts | 110° |
| 2026-05-05 08:19 | 14.12352 | -15.11614 | 41221 ft | 461 kts | 110° |
| 2026-05-05 08:19 | 14.11488 | -15.08429 | 41526 ft | 462 kts | 110° |
| 2026-05-05 08:20 | 14.10633 | -15.05237 | 41830 ft | 462 kts | 109° |
| 2026-05-05 08:20 | 14.09779 | -15.02050 | 42124 ft | 462 kts | 109° |
| 2026-05-05 08:20 | 14.08919 | -14.98866 | 42421 ft | 461 kts | 109° |
| 2026-05-05 08:20 | 14.08057 | -14.95682 | 42694 ft | 461 kts | 109° |
| 2026-05-05 08:21 | 14.07199 | -14.92502 | 42940 ft | 462 kts | 109° |
| 2026-05-05 08:21 | 14.06339 | -14.89311 | 43193 ft | 462 kts | 109° |
| 2026-05-05 08:21 | 14.05478 | -14.86123 | 43444 ft | 462 kts | 109° |
| 2026-05-05 08:21 | 14.04614 | -14.82935 | 43691 ft | 462 kts | 109° |
| 2026-05-05 08:22 | 14.03753 | -14.79749 | 43925 ft | 462 kts | 109° |
| 2026-05-05 08:22 | 14.02890 | -14.76560 | 44169 ft | 462 kts | 109° |
| 2026-05-05 08:22 | 14.02026 | -14.73372 | 44392 ft | 462 kts | 109° |
| 2026-05-05 08:22 | 14.01163 | -14.70187 | 44624 ft | 462 kts | 109° |
| 2026-05-05 08:23 | 14.00297 | -14.66997 | 44789 ft | 463 kts | 109° |
| 2026-05-05 08:23 | 13.99432 | -14.63808 | 44955 ft | 463 kts | 109° |
| 2026-05-05 08:23 | 13.97682 | -14.57369 | 44980 ft | 472 kts | 109° |
| 2026-05-05 08:24 | 13.95898 | -14.50802 | 44990 ft | 481 kts | 109° |
| 2026-05-05 08:24 | 13.94075 | -14.44109 | 44984 ft | 490 kts | 109° |
| 2026-05-05 08:25 | 13.92219 | -14.37295 | 44990 ft | 499 kts | 108° |
| 2026-05-05 08:25 | 13.90329 | -14.30370 | 44990 ft | 507 kts | 108° |
| 2026-05-05 08:26 | 13.88404 | -14.23323 | 44993 ft | 515 kts | 108° |
| 2026-05-05 08:26 | 13.86449 | -14.16173 | 44983 ft | 523 kts | 108° |
| 2026-05-05 08:27 | 13.84464 | -14.08922 | 44989 ft | 530 kts | 108° |
| 2026-05-05 08:27 | 13.82454 | -14.01593 | 44997 ft | 535 kts | 108° |
| 2026-05-05 08:28 | 13.80425 | -13.94203 | 45000 ft | 539 kts | 108° |
| 2026-05-05 08:28 | 13.78381 | -13.86765 | 45012 ft | 542 kts | 108° |
| 2026-05-05 08:29 | 13.76324 | -13.79292 | 45023 ft | 544 kts | 108° |
| 2026-05-05 08:30 | 13.73618 | -13.69284 | 45033 ft | 547 kts | 107° |
| 2026-05-05 08:30 | 13.71809 | -13.61680 | 45022 ft | 548 kts | 105° |
| 2026-05-05 08:31 | 13.70374 | -13.53969 | 45012 ft | 550 kts | 102° |
| 2026-05-05 08:31 | 13.68860 | -13.46274 | 44998 ft | 549 kts | 104° |
| 2026-05-05 08:32 | 13.67352 | -13.38579 | 44999 ft | 550 kts | 102° |
| 2026-05-05 08:32 | 13.65868 | -13.30877 | 44982 ft | 549 kts | 104° |
| 2026-05-05 08:33 | 13.64341 | -13.23182 | 44984 ft | 549 kts | 103° |
| 2026-05-05 08:33 | 13.62853 | -13.15479 | 44963 ft | 549 kts | 103° |
| 2026-05-05 08:34 | 13.61327 | -13.07789 | 44976 ft | 549 kts | 103° |
| 2026-05-05 08:34 | 13.59828 | -13.00094 | 44973 ft | 549 kts | 103° |
| 2026-05-05 08:35 | 13.58306 | -12.92412 | 44970 ft | 549 kts | 103° |
| 2026-05-05 08:35 | 13.56797 | -12.84725 | 44970 ft | 548 kts | 103° |
| 2026-05-05 08:36 | 13.55276 | -12.77047 | 44964 ft | 548 kts | 103° |
| 2026-05-05 08:36 | 13.53760 | -12.69371 | 44975 ft | 548 kts | 103° |
| 2026-05-05 08:37 | 13.52237 | -12.61698 | 44965 ft | 548 kts | 103° |
| 2026-05-05 08:37 | 13.50716 | -12.54029 | 44966 ft | 548 kts | 103° |
| 2026-05-05 08:38 | 13.49192 | -12.46366 | 44969 ft | 547 kts | 103° |
| 2026-05-05 08:38 | 13.47667 | -12.38712 | 44961 ft | 546 kts | 103° |
| 2026-05-05 08:39 | 13.46143 | -12.31070 | 44968 ft | 545 kts | 103° |
| 2026-05-05 08:39 | 13.44621 | -12.23454 | 44970 ft | 544 kts | 103° |
| 2026-05-05 08:40 | 13.43097 | -12.15844 | 44960 ft | 544 kts | 103° |
| 2026-05-05 08:40 | 13.41584 | -12.08298 | 44973 ft | 543 kts | 103° |
| 2026-05-05 08:41 | 13.40061 | -12.00710 | 44965 ft | 542 kts | 103° |
| 2026-05-05 08:41 | 13.38536 | -11.93130 | 44968 ft | 542 kts | 103° |
| 2026-05-05 08:42 | 13.37010 | -11.85555 | 44954 ft | 541 kts | 103° |
| 2026-05-05 08:42 | 13.35483 | -11.77987 | 44953 ft | 541 kts | 103° |
| 2026-05-05 08:43 | 13.33956 | -11.70430 | 44969 ft | 540 kts | 103° |
| 2026-05-05 08:43 | 13.32428 | -11.62881 | 44969 ft | 540 kts | 103° |
| 2026-05-05 08:44 | 13.30898 | -11.55336 | 44966 ft | 540 kts | 103° |
| 2026-05-05 08:44 | 13.29367 | -11.47797 | 44958 ft | 539 kts | 103° |
| 2026-05-05 08:45 | 13.27834 | -11.40260 | 44957 ft | 539 kts | 103° |
| 2026-05-05 08:45 | 13.26300 | -11.32728 | 44949 ft | 539 kts | 103° |
| 2026-05-05 08:46 | 13.24764 | -11.25198 | 44947 ft | 539 kts | 103° |
| 2026-05-05 08:46 | 13.23226 | -11.17672 | 44950 ft | 539 kts | 103° |
| 2026-05-05 08:47 | 13.21687 | -11.10150 | 44948 ft | 538 kts | 103° |
| 2026-05-05 08:47 | 13.20145 | -11.02631 | 44945 ft | 538 kts | 103° |
| 2026-05-05 08:48 | 13.18603 | -10.95116 | 44945 ft | 538 kts | 103° |
| 2026-05-05 08:48 | 13.17058 | -10.87607 | 44942 ft | 538 kts | 103° |
| 2026-05-05 08:49 | 13.15513 | -10.80100 | 44953 ft | 538 kts | 103° |
| 2026-05-05 08:49 | 13.13966 | -10.72600 | 44950 ft | 537 kts | 103° |
| 2026-05-05 08:50 | 13.12416 | -10.65095 | 44948 ft | 537 kts | 103° |
| 2026-05-05 08:50 | 13.10865 | -10.57601 | 44952 ft | 537 kts | 103° |
| 2026-05-05 08:51 | 13.09312 | -10.50105 | 44951 ft | 537 kts | 103° |
| 2026-05-05 08:51 | 13.07758 | -10.42613 | 44952 ft | 537 kts | 103° |
| 2026-05-05 08:52 | 13.06201 | -10.35128 | 44952 ft | 537 kts | 103° |
| 2026-05-05 08:52 | 13.04644 | -10.27648 | 44963 ft | 536 kts | 103° |
| 2026-05-05 08:53 | 13.03084 | -10.20171 | 44953 ft | 536 kts | 103° |
| 2026-05-05 08:53 | 13.01522 | -10.12690 | 44969 ft | 536 kts | 103° |
| 2026-05-05 08:54 | 12.99959 | -10.05217 | 44958 ft | 536 kts | 103° |
| 2026-05-05 08:54 | 12.98393 | -9.97742 | 44952 ft | 536 kts | 103° |
| 2026-05-05 08:55 | 12.96825 | -9.90269 | 44945 ft | 536 kts | 103° |
| 2026-05-05 08:55 | 12.95255 | -9.82797 | 44950 ft | 536 kts | 103° |
| 2026-05-05 08:56 | 12.93683 | -9.75324 | 44955 ft | 536 kts | 103° |
| 2026-05-05 08:56 | 12.92109 | -9.67855 | 44965 ft | 536 kts | 103° |
| 2026-05-05 08:57 | 12.90533 | -9.60387 | 44956 ft | 536 kts | 103° |
| 2026-05-05 08:57 | 12.88953 | -9.52910 | 44953 ft | 536 kts | 103° |
| 2026-05-05 08:58 | 12.87372 | -9.45440 | 44957 ft | 537 kts | 103° |
| 2026-05-05 08:58 | 12.85787 | -9.37963 | 44964 ft | 537 kts | 103° |
| 2026-05-05 08:59 | 12.84200 | -9.30487 | 44964 ft | 537 kts | 103° |
| 2026-05-05 08:59 | 12.82610 | -9.23008 | 44958 ft | 537 kts | 103° |
| 2026-05-05 09:00 | 12.81024 | -9.15532 | 44971 ft | 537 kts | 103° |
| 2026-05-05 09:00 | 12.79431 | -9.08048 | 44965 ft | 538 kts | 103° |
| 2026-05-05 09:01 | 12.77837 | -9.00562 | 44966 ft | 538 kts | 103° |
| 2026-05-05 09:01 | 12.76240 | -8.93076 | 44972 ft | 538 kts | 103° |
| 2026-05-05 09:02 | 12.74639 | -8.85587 | 44970 ft | 538 kts | 103° |
| 2026-05-05 09:02 | 12.73037 | -8.78097 | 44958 ft | 538 kts | 103° |
| 2026-05-05 09:03 | 12.71433 | -8.70611 | 44975 ft | 538 kts | 103° |
| 2026-05-05 09:03 | 12.69829 | -8.63136 | 44973 ft | 538 kts | 103° |
| 2026-05-05 09:04 | 12.68222 | -8.55658 | 44978 ft | 538 kts | 103° |
| 2026-05-05 09:04 | 12.66613 | -8.48183 | 44976 ft | 537 kts | 103° |
| 2026-05-05 09:05 | 12.65002 | -8.40709 | 44974 ft | 538 kts | 103° |
| 2026-05-05 09:05 | 12.63390 | -8.33235 | 44977 ft | 537 kts | 103° |
| 2026-05-05 09:06 | 12.61776 | -8.25768 | 44979 ft | 537 kts | 103° |
| 2026-05-05 09:06 | 12.60160 | -8.18300 | 44984 ft | 537 kts | 103° |
| 2026-05-05 09:07 | 12.58541 | -8.10833 | 44997 ft | 537 kts | 103° |
| 2026-05-05 09:07 | 12.56934 | -8.03425 | 45001 ft | 537 kts | 103° |
| 2026-05-05 09:08 | 12.55238 | -7.95983 | 45002 ft | 536 kts | 105° |
| 2026-05-05 09:08 | 12.53140 | -7.88669 | 44988 ft | 535 kts | 110° |
| 2026-05-05 09:09 | 12.50284 | -7.81650 | 44985 ft | 534 kts | 115° |
| 2026-05-05 09:09 | 12.47602 | -7.74560 | 44977 ft | 535 kts | 111° |
| 2026-05-05 09:10 | 12.44888 | -7.67484 | 44965 ft | 534 kts | 114° |
| 2026-05-05 09:10 | 12.42145 | -7.60423 | 44955 ft | 534 kts | 112° |
| 2026-05-05 09:11 | 12.39452 | -7.53343 | 44961 ft | 534 kts | 113° |
| 2026-05-05 09:11 | 12.36703 | -7.46288 | 44954 ft | 534 kts | 112° |
| 2026-05-05 09:12 | 12.34000 | -7.39214 | 44959 ft | 534 kts | 113° |
| 2026-05-05 09:12 | 12.31256 | -7.32156 | 44960 ft | 534 kts | 112° |
| 2026-05-05 09:13 | 12.28541 | -7.25092 | 44959 ft | 534 kts | 112° |
| 2026-05-05 09:13 | 12.26266 | -7.19231 | 44951 ft | 534 kts | 112° |
| 2026-05-05 09:14 | 12.23538 | -7.12168 | 44952 ft | 534 kts | 112° |
| 2026-05-05 09:14 | 12.20802 | -7.05110 | 44958 ft | 534 kts | 112° |
| 2026-05-05 09:15 | 12.18068 | -6.98055 | 44955 ft | 534 kts | 112° |
| 2026-05-05 09:15 | 12.15331 | -6.90999 | 44950 ft | 534 kts | 112° |
| 2026-05-05 09:16 | 12.12591 | -6.83945 | 44956 ft | 534 kts | 112° |
| 2026-05-05 09:16 | 12.09833 | -6.76846 | 44951 ft | 534 kts | 112° |
| 2026-05-05 09:17 | 12.07089 | -6.69792 | 44955 ft | 534 kts | 112° |
| 2026-05-05 09:17 | 12.04344 | -6.62742 | 44963 ft | 534 kts | 112° |
| 2026-05-05 09:18 | 12.01597 | -6.55690 | 44969 ft | 534 kts | 112° |
| 2026-05-05 09:18 | 11.98849 | -6.48643 | 44942 ft | 534 kts | 112° |
| 2026-05-05 09:19 | 11.96098 | -6.41596 | 44953 ft | 534 kts | 112° |
| 2026-05-05 09:19 | 11.93349 | -6.34556 | 44956 ft | 534 kts | 112° |
| 2026-05-05 09:20 | 11.90598 | -6.27521 | 44967 ft | 533 kts | 112° |
| 2026-05-05 09:20 | 11.87865 | -6.20535 | 44961 ft | 533 kts | 112° |
| 2026-05-05 09:21 | 11.85112 | -6.13505 | 44955 ft | 533 kts | 112° |
| 2026-05-05 09:21 | 11.82357 | -6.06475 | 44952 ft | 533 kts | 112° |
| 2026-05-05 09:22 | 11.79601 | -5.99449 | 44955 ft | 533 kts | 112° |
| 2026-05-05 09:22 | 11.76845 | -5.92428 | 44954 ft | 533 kts | 112° |
| 2026-05-05 09:23 | 11.74084 | -5.85400 | 44940 ft | 534 kts | 112° |
| 2026-05-05 09:23 | 11.71302 | -5.78326 | 44950 ft | 533 kts | 112° |
| 2026-05-05 09:24 | 11.68539 | -5.71305 | 44954 ft | 533 kts | 112° |
| 2026-05-05 09:24 | 11.65774 | -5.64285 | 44958 ft | 533 kts | 112° |
| 2026-05-05 09:25 | 11.63009 | -5.57269 | 44961 ft | 533 kts | 112° |
| 2026-05-05 09:25 | 11.60241 | -5.50255 | 44958 ft | 533 kts | 112° |
| 2026-05-05 09:26 | 11.57472 | -5.43241 | 44937 ft | 533 kts | 112° |
| 2026-05-05 09:26 | 11.54701 | -5.36227 | 44955 ft | 533 kts | 112° |
| 2026-05-05 09:27 | 11.51931 | -5.29223 | 44957 ft | 532 kts | 112° |
| 2026-05-05 09:27 | 11.49160 | -5.22222 | 44951 ft | 532 kts | 112° |
| 2026-05-05 09:28 | 11.46390 | -5.15223 | 44939 ft | 532 kts | 112° |
| 2026-05-05 09:28 | 11.43618 | -5.08230 | 44951 ft | 532 kts | 112° |
| 2026-05-05 09:29 | 11.40847 | -5.01243 | 44961 ft | 531 kts | 112° |
| 2026-05-05 09:29 | 11.38078 | -4.94265 | 44952 ft | 531 kts | 112° |
| 2026-05-05 09:30 | 11.35308 | -4.87292 | 44956 ft | 531 kts | 112° |
| 2026-05-05 09:30 | 11.32538 | -4.80322 | 44952 ft | 530 kts | 112° |
| 2026-05-05 09:31 | 11.29770 | -4.73365 | 44964 ft | 529 kts | 112° |
| 2026-05-05 09:31 | 11.27003 | -4.66416 | 44960 ft | 529 kts | 112° |
| 2026-05-05 09:32 | 11.24237 | -4.59473 | 44963 ft | 529 kts | 112° |
| 2026-05-05 09:32 | 11.21471 | -4.52537 | 44971 ft | 528 kts | 112° |
| 2026-05-05 09:33 | 11.18707 | -4.45610 | 44984 ft | 527 kts | 112° |
| 2026-05-05 09:33 | 11.15913 | -4.38706 | 44996 ft | 527 kts | 113° |
| 2026-05-05 09:34 | 11.12946 | -4.31893 | 45001 ft | 526 kts | 114° |
| 2026-05-05 09:34 | 11.09766 | -4.25195 | 44999 ft | 525 kts | 118° |
| 2026-05-05 09:35 | 11.06497 | -4.18551 | 44979 ft | 525 kts | 115° |
| 2026-05-05 09:35 | 11.01685 | -4.08551 | 44973 ft | 524 kts | 117° |
| 2026-05-05 09:36 | 10.98483 | -4.01880 | 44944 ft | 524 kts | 116° |
| 2026-05-05 09:36 | 10.95258 | -3.95225 | 44940 ft | 524 kts | 116° |
| 2026-05-05 09:37 | 10.92037 | -3.88571 | 44941 ft | 524 kts | 116° |
| 2026-05-05 09:37 | 10.88819 | -3.81917 | 44962 ft | 524 kts | 116° |
| 2026-05-05 09:38 | 10.85595 | -3.75273 | 44941 ft | 524 kts | 116° |
| 2026-05-05 09:38 | 10.82377 | -3.68627 | 44935 ft | 524 kts | 116° |
| 2026-05-05 09:39 | 10.79151 | -3.61985 | 44938 ft | 523 kts | 116° |
| 2026-05-05 09:39 | 10.75931 | -3.55348 | 44932 ft | 523 kts | 116° |
| 2026-05-05 09:40 | 10.72707 | -3.48716 | 44939 ft | 523 kts | 116° |
| 2026-05-05 09:40 | 10.69486 | -3.42087 | 44935 ft | 522 kts | 116° |
| 2026-05-05 09:41 | 10.66266 | -3.35470 | 44927 ft | 522 kts | 116° |
| 2026-05-05 09:41 | 10.63042 | -3.28846 | 44934 ft | 522 kts | 116° |
| 2026-05-05 09:42 | 10.59825 | -3.22241 | 44927 ft | 521 kts | 116° |
| 2026-05-05 09:42 | 10.56608 | -3.15640 | 44932 ft | 521 kts | 116° |
| 2026-05-05 09:43 | 10.53391 | -3.09045 | 44924 ft | 521 kts | 116° |
| 2026-05-05 09:43 | 10.50175 | -3.02455 | 44922 ft | 520 kts | 116° |
| 2026-05-05 09:44 | 10.46959 | -2.95868 | 44916 ft | 520 kts | 115° |
| 2026-05-05 09:44 | 10.43750 | -2.89288 | 44925 ft | 520 kts | 115° |
| 2026-05-05 09:45 | 10.40712 | -2.82634 | 44923 ft | 518 kts | 111° |
| 2026-05-05 09:45 | 10.38178 | -2.75843 | 44916 ft | 517 kts | 106° |
| 2026-05-05 09:46 | 10.35967 | -2.68899 | 44930 ft | 517 kts | 109° |
| 2026-05-05 09:46 | 10.33498 | -2.62042 | 44924 ft | 517 kts | 108° |
| 2026-05-05 09:47 | 10.31210 | -2.55123 | 44919 ft | 517 kts | 108° |
| 2026-05-05 09:47 | 10.28799 | -2.48248 | 44918 ft | 517 kts | 108° |
| 2026-05-05 09:48 | 10.26464 | -2.41351 | 44920 ft | 516 kts | 108° |
| 2026-05-05 09:48 | 10.24083 | -2.34474 | 44915 ft | 516 kts | 108° |
| 2026-05-05 09:49 | 10.21673 | -2.27615 | 44913 ft | 516 kts | 109° |
| 2026-05-05 09:49 | 10.19021 | -2.20846 | 44909 ft | 516 kts | 111° |
| 2026-05-05 09:50 | 10.15973 | -2.14249 | 44909 ft | 516 kts | 114° |
| 2026-05-05 09:50 | 10.13018 | -2.07619 | 44905 ft | 515 kts | 112° |
| 2026-05-05 09:51 | 10.10015 | -2.00957 | 44907 ft | 516 kts | 114° |
| 2026-05-05 09:51 | 10.07024 | -1.94344 | 44897 ft | 515 kts | 112° |
| 2026-05-05 09:52 | 10.04055 | -1.87728 | 44906 ft | 515 kts | 113° |
| 2026-05-05 09:52 | 10.01562 | -1.82243 | 44904 ft | 515 kts | 113° |
| 2026-05-05 09:53 | 9.98110 | -1.74565 | 44901 ft | 515 kts | 113° |
| 2026-05-05 09:53 | 9.95122 | -1.67973 | 44902 ft | 514 kts | 113° |
| 2026-05-05 09:54 | 9.92630 | -1.62445 | 44895 ft | 514 kts | 113° |
| 2026-05-05 09:54 | 9.89645 | -1.55855 | 44895 ft | 514 kts | 113° |
| 2026-05-05 09:55 | 9.86666 | -1.49271 | 44892 ft | 513 kts | 113° |
| 2026-05-05 09:55 | 9.83707 | -1.42738 | 44886 ft | 513 kts | 113° |
| 2026-05-05 09:56 | 9.80730 | -1.36168 | 44885 ft | 513 kts | 113° |
| 2026-05-05 09:56 | 9.77754 | -1.29607 | 44892 ft | 512 kts | 113° |
| 2026-05-05 09:57 | 9.74779 | -1.23050 | 44890 ft | 512 kts | 113° |
| 2026-05-05 09:57 | 9.71803 | -1.16495 | 44888 ft | 512 kts | 113° |
| 2026-05-05 09:58 | 9.68828 | -1.09945 | 44902 ft | 512 kts | 113° |
| 2026-05-05 09:58 | 9.65851 | -1.03396 | 44907 ft | 512 kts | 113° |
| 2026-05-05 09:59 | 9.62873 | -0.96848 | 44911 ft | 512 kts | 113° |
| 2026-05-05 09:59 | 9.59894 | -0.90299 | 44909 ft | 512 kts | 113° |
| 2026-05-05 10:00 | 9.57026 | -0.83700 | 44902 ft | 511 kts | 111° |
| 2026-05-05 10:00 | 9.54130 | -0.77118 | 44902 ft | 511 kts | 111° |
| 2026-05-05 10:01 | 9.51454 | -0.70446 | 44903 ft | 511 kts | 111° |
| 2026-05-05 10:01 | 9.48643 | -0.63831 | 44889 ft | 511 kts | 111° |
| 2026-05-05 10:02 | 9.45906 | -0.57184 | 44881 ft | 511 kts | 111° |
| 2026-05-05 10:02 | 9.43128 | -0.50553 | 44876 ft | 512 kts | 111° |
| 2026-05-05 10:03 | 9.40364 | -0.43913 | 44893 ft | 512 kts | 111° |
| 2026-05-05 10:03 | 9.37593 | -0.37271 | 44890 ft | 512 kts | 111° |
| 2026-05-05 10:04 | 9.34816 | -0.30624 | 44888 ft | 512 kts | 111° |
| 2026-05-05 10:04 | 9.32041 | -0.23975 | 44877 ft | 513 kts | 111° |
| 2026-05-05 10:05 | 9.29259 | -0.17324 | 44884 ft | 513 kts | 111° |
| 2026-05-05 10:05 | 9.26479 | -0.10672 | 44881 ft | 513 kts | 111° |
| 2026-05-05 10:06 | 9.23641 | -0.04040 | 44877 ft | 514 kts | 113° |
| 2026-05-05 10:06 | 9.20507 | 0.02460 | 44888 ft | 514 kts | 117° |
| 2026-05-05 10:07 | 9.16826 | 0.08668 | 44890 ft | 515 kts | 121° |
| 2026-05-05 10:07 | 9.13271 | 0.14952 | 44884 ft | 515 kts | 118° |
| 2026-05-05 10:08 | 9.09669 | 0.21217 | 44883 ft | 515 kts | 120° |
| 2026-05-05 10:08 | 9.06060 | 0.27484 | 44897 ft | 515 kts | 119° |
| 2026-05-05 10:09 | 9.02471 | 0.33767 | 44902 ft | 516 kts | 120° |
| 2026-05-05 10:09 | 8.98851 | 0.40035 | 44914 ft | 516 kts | 119° |
| 2026-05-05 10:10 | 8.95253 | 0.46322 | 44906 ft | 517 kts | 120° |
| 2026-05-05 10:10 | 8.91628 | 0.52603 | 44902 ft | 517 kts | 120° |
| 2026-05-05 10:11 | 8.88012 | 0.58891 | 44903 ft | 517 kts | 120° |
| 2026-05-05 10:11 | 8.84385 | 0.65173 | 44908 ft | 517 kts | 120° |
| 2026-05-05 10:12 | 8.80761 | 0.71461 | 44921 ft | 518 kts | 120° |
| 2026-05-05 10:12 | 8.77155 | 0.77707 | 44928 ft | 517 kts | 120° |
| 2026-05-05 10:13 | 8.73525 | 0.84044 | 44928 ft | 518 kts | 119° |
| 2026-05-05 10:13 | 8.69928 | 0.90348 | 44926 ft | 518 kts | 119° |
| 2026-05-05 10:14 | 8.66343 | 0.96599 | 44935 ft | 517 kts | 119° |
| 2026-05-05 10:14 | 8.62747 | 1.02892 | 44930 ft | 517 kts | 119° |
| 2026-05-05 10:15 | 8.59143 | 1.09176 | 44929 ft | 517 kts | 119° |
| 2026-05-05 10:15 | 8.55547 | 1.15457 | 44934 ft | 516 kts | 119° |
| 2026-05-05 10:16 | 8.51922 | 1.21777 | 44932 ft | 516 kts | 119° |
| 2026-05-05 10:16 | 8.48326 | 1.28049 | 44931 ft | 516 kts | 119° |
| 2026-05-05 10:17 | 8.44728 | 1.34317 | 44937 ft | 516 kts | 119° |
| 2026-05-05 10:17 | 8.41156 | 1.40541 | 44937 ft | 516 kts | 119° |
| 2026-05-05 10:18 | 8.37534 | 1.46846 | 44939 ft | 515 kts | 119° |
| 2026-05-05 10:18 | 8.33937 | 1.53107 | 44930 ft | 516 kts | 119° |
| 2026-05-05 10:19 | 8.30334 | 1.59372 | 44930 ft | 516 kts | 119° |
| 2026-05-05 10:19 | 8.26732 | 1.65637 | 44930 ft | 516 kts | 120° |
| 2026-05-05 10:20 | 8.23128 | 1.71900 | 44935 ft | 516 kts | 120° |
| 2026-05-05 10:20 | 8.19522 | 1.78163 | 44937 ft | 516 kts | 120° |
| 2026-05-05 10:21 | 8.15916 | 1.84425 | 44939 ft | 516 kts | 120° |
| 2026-05-05 10:21 | 8.12308 | 1.90686 | 44935 ft | 516 kts | 120° |
| 2026-05-05 10:22 | 8.08700 | 1.96946 | 44928 ft | 516 kts | 120° |
| 2026-05-05 10:22 | 8.05089 | 2.03207 | 44930 ft | 516 kts | 120° |
| 2026-05-05 10:23 | 8.01479 | 2.09463 | 44935 ft | 516 kts | 120° |
| 2026-05-05 10:23 | 7.97868 | 2.15719 | 44931 ft | 516 kts | 120° |
| 2026-05-05 10:24 | 7.94259 | 2.21969 | 44941 ft | 515 kts | 120° |
| 2026-05-05 10:24 | 7.90644 | 2.28211 | 44940 ft | 515 kts | 121° |
| 2026-05-05 10:25 | 7.86860 | 2.34338 | 44930 ft | 514 kts | 125° |
| 2026-05-05 10:25 | 7.82135 | 2.39712 | 44923 ft | 512 kts | 139° |
| 2026-05-05 10:26 | 7.76525 | 2.44124 | 44945 ft | 511 kts | 144° |
| 2026-05-05 10:26 | 7.70983 | 2.48616 | 44940 ft | 512 kts | 139° |
| 2026-05-05 10:27 | 7.65647 | 2.53351 | 44942 ft | 511 kts | 142° |
| 2026-05-05 10:27 | 7.60130 | 2.57870 | 44945 ft | 511 kts | 140° |
| 2026-05-05 10:28 | 7.54744 | 2.62551 | 44944 ft | 511 kts | 141° |
| 2026-05-05 10:28 | 7.49266 | 2.67118 | 44941 ft | 511 kts | 141° |
| 2026-05-05 10:29 | 7.43850 | 2.71755 | 44946 ft | 511 kts | 140° |
| 2026-05-05 10:29 | 7.38397 | 2.76343 | 44949 ft | 511 kts | 141° |
| 2026-05-05 10:30 | 7.32923 | 2.80909 | 44949 ft | 511 kts | 141° |
| 2026-05-05 10:30 | 7.27454 | 2.85480 | 44949 ft | 511 kts | 141° |
| 2026-05-05 10:31 | 7.21976 | 2.90052 | 44944 ft | 511 kts | 141° |
| 2026-05-05 10:31 | 7.16497 | 2.94626 | 44929 ft | 512 kts | 141° |
| 2026-05-05 10:32 | 7.11014 | 2.99201 | 44937 ft | 512 kts | 141° |
| 2026-05-05 10:32 | 7.05527 | 3.03778 | 44937 ft | 512 kts | 141° |
| 2026-05-05 10:33 | 7.00041 | 3.08352 | 44947 ft | 512 kts | 141° |
| 2026-05-05 10:33 | 6.94558 | 3.12923 | 44953 ft | 512 kts | 141° |
| 2026-05-05 10:34 | 6.89074 | 3.17493 | 44958 ft | 512 kts | 141° |
| 2026-05-05 10:34 | 6.84514 | 3.21292 | 44971 ft | 512 kts | 141° |
| 2026-05-05 10:35 | 6.79057 | 3.25889 | 44980 ft | 512 kts | 140° |
| 2026-05-05 10:35 | 6.73890 | 3.30801 | 44967 ft | 513 kts | 130° |
| 2026-05-05 10:36 | 6.70157 | 3.36884 | 44974 ft | 513 kts | 113° |
| 2026-05-05 10:36 | 6.68367 | 3.43798 | 44979 ft | 512 kts | 96° |
| 2026-05-05 10:37 | 6.68044 | 3.50946 | 44986 ft | 511 kts | 91° |
| 2026-05-05 10:37 | 6.67500 | 3.58065 | 44966 ft | 511 kts | 99° |
| 2026-05-05 10:38 | 6.66229 | 3.65098 | 44964 ft | 511 kts | 99° |
| 2026-05-05 10:38 | 6.65399 | 3.72192 | 44960 ft | 511 kts | 96° |
| 2026-05-05 10:39 | 6.64355 | 3.79251 | 44961 ft | 510 kts | 99° |
| 2026-05-05 10:39 | 6.63407 | 3.86325 | 44961 ft | 510 kts | 97° |
| 2026-05-05 10:40 | 6.62433 | 3.93366 | 44956 ft | 508 kts | 98° |
| 2026-05-05 10:40 | 6.61453 | 4.00399 | 44956 ft | 507 kts | 98° |
| 2026-05-05 10:41 | 6.60493 | 4.07432 | 44956 ft | 508 kts | 98° |
| 2026-05-05 10:41 | 6.59508 | 4.14458 | 44956 ft | 507 kts | 98° |
| 2026-05-05 10:42 | 6.58053 | 4.24995 | 44957 ft | 507 kts | 98° |
| 2026-05-05 10:43 | 6.57079 | 4.32019 | 44959 ft | 506 kts | 98° |
| 2026-05-05 10:43 | 6.56107 | 4.39020 | 44950 ft | 505 kts | 98° |
| 2026-05-05 10:44 | 6.55145 | 4.46015 | 44950 ft | 505 kts | 98° |
| 2026-05-05 10:44 | 6.54201 | 4.53020 | 44947 ft | 506 kts | 98° |
| 2026-05-05 10:45 | 6.53240 | 4.60028 | 44957 ft | 506 kts | 98° |
| 2026-05-05 10:45 | 6.52278 | 4.67039 | 44956 ft | 506 kts | 98° |
| 2026-05-05 10:46 | 6.51294 | 4.74052 | 44951 ft | 506 kts | 99° |
| 2026-05-05 10:46 | 6.50159 | 4.81039 | 44942 ft | 506 kts | 99° |
| 2026-05-05 10:47 | 6.49133 | 4.88042 | 44944 ft | 506 kts | 101° |
| 2026-05-05 10:47 | 6.47797 | 4.94996 | 44948 ft | 507 kts | 101° |
| 2026-05-05 10:48 | 6.46658 | 5.01998 | 44946 ft | 508 kts | 100° |
| 2026-05-05 10:48 | 6.45397 | 5.08981 | 44942 ft | 508 kts | 101° |
| 2026-05-05 10:49 | 6.44200 | 5.15985 | 44949 ft | 509 kts | 100° |
| 2026-05-05 10:49 | 6.42969 | 5.22985 | 44950 ft | 509 kts | 101° |
| 2026-05-05 10:50 | 6.41747 | 5.29995 | 44950 ft | 509 kts | 100° |
| 2026-05-05 10:50 | 6.40523 | 5.37010 | 44952 ft | 509 kts | 101° |
| 2026-05-05 10:51 | 6.39295 | 5.44023 | 44951 ft | 509 kts | 101° |
| 2026-05-05 10:51 | 6.38070 | 5.51036 | 44950 ft | 510 kts | 101° |
| 2026-05-05 10:52 | 6.36838 | 5.58058 | 44951 ft | 510 kts | 101° |
| 2026-05-05 10:52 | 6.35609 | 5.65082 | 44955 ft | 510 kts | 101° |
| 2026-05-05 10:53 | 6.34376 | 5.72100 | 44947 ft | 510 kts | 101° |
| 2026-05-05 10:53 | 6.33146 | 5.79115 | 44952 ft | 510 kts | 101° |
| 2026-05-05 10:54 | 6.31913 | 5.86128 | 44948 ft | 510 kts | 101° |
| 2026-05-05 10:54 | 6.30680 | 5.93145 | 44947 ft | 510 kts | 101° |
| 2026-05-05 10:55 | 6.29445 | 6.00158 | 44950 ft | 509 kts | 101° |
| 2026-05-05 10:55 | 6.28211 | 6.07166 | 44953 ft | 509 kts | 101° |
| 2026-05-05 10:56 | 6.26975 | 6.14172 | 44952 ft | 509 kts | 101° |
| 2026-05-05 10:56 | 6.25742 | 6.21168 | 44948 ft | 508 kts | 101° |
| 2026-05-05 10:57 | 6.24507 | 6.28159 | 44943 ft | 508 kts | 101° |
| 2026-05-05 10:57 | 6.23272 | 6.35150 | 44954 ft | 508 kts | 101° |
| 2026-05-05 10:58 | 6.22044 | 6.42096 | 44949 ft | 508 kts | 101° |
| 2026-05-05 10:58 | 6.20807 | 6.49085 | 44950 ft | 508 kts | 101° |
| 2026-05-05 10:59 | 6.19561 | 6.56069 | 44943 ft | 508 kts | 101° |
| 2026-05-05 10:59 | 6.18310 | 6.63048 | 44943 ft | 507 kts | 101° |
| 2026-05-05 11:00 | 6.17064 | 6.70021 | 44946 ft | 507 kts | 101° |
| 2026-05-05 11:00 | 6.15815 | 6.76989 | 44936 ft | 507 kts | 101° |
| 2026-05-05 11:01 | 6.14567 | 6.83953 | 44931 ft | 507 kts | 101° |
| 2026-05-05 11:01 | 6.13317 | 6.90922 | 44937 ft | 506 kts | 101° |
| 2026-05-05 11:02 | 6.12067 | 6.97881 | 44940 ft | 506 kts | 101° |
| 2026-05-05 11:02 | 6.10818 | 7.04841 | 44939 ft | 506 kts | 101° |
| 2026-05-05 11:03 | 6.09602 | 7.11806 | 44944 ft | 506 kts | 101° |
| 2026-05-05 11:03 | 6.08372 | 7.18767 | 44952 ft | 506 kts | 101° |
| 2026-05-05 11:04 | 6.07146 | 7.25727 | 44935 ft | 506 kts | 101° |
| 2026-05-05 11:04 | 6.05919 | 7.32685 | 44940 ft | 506 kts | 101° |
| 2026-05-05 11:05 | 6.04691 | 7.39639 | 44937 ft | 505 kts | 101° |
| 2026-05-05 11:05 | 6.03462 | 7.46584 | 44940 ft | 505 kts | 101° |
| 2026-05-05 11:06 | 6.02231 | 7.53517 | 44944 ft | 504 kts | 101° |
| 2026-05-05 11:06 | 6.01004 | 7.60436 | 44947 ft | 503 kts | 101° |
| 2026-05-05 11:07 | 5.99775 | 7.67351 | 44934 ft | 503 kts | 101° |
| 2026-05-05 11:07 | 5.98547 | 7.74262 | 44928 ft | 502 kts | 101° |
| 2026-05-05 11:08 | 5.97318 | 7.81171 | 44933 ft | 502 kts | 101° |
| 2026-05-05 11:08 | 5.96090 | 7.88075 | 44930 ft | 502 kts | 101° |
| 2026-05-05 11:09 | 5.94860 | 7.94978 | 44938 ft | 502 kts | 101° |
| 2026-05-05 11:09 | 5.93629 | 8.01882 | 44936 ft | 502 kts | 101° |
| 2026-05-05 11:10 | 5.92397 | 8.08789 | 44937 ft | 502 kts | 101° |
| 2026-05-05 11:10 | 5.91165 | 8.15694 | 44943 ft | 502 kts | 101° |
| 2026-05-05 11:11 | 5.89930 | 8.22603 | 44944 ft | 503 kts | 101° |
| 2026-05-05 11:11 | 5.88694 | 8.29514 | 44946 ft | 503 kts | 101° |
| 2026-05-05 11:12 | 5.87458 | 8.36425 | 44945 ft | 503 kts | 101° |
| 2026-05-05 11:12 | 5.86219 | 8.43347 | 44950 ft | 504 kts | 101° |
| 2026-05-05 11:13 | 5.84977 | 8.50273 | 44946 ft | 504 kts | 101° |
| 2026-05-05 11:13 | 5.83653 | 8.57185 | 44933 ft | 504 kts | 102° |
| 2026-05-05 11:14 | 5.82336 | 8.64099 | 44934 ft | 504 kts | 101° |
| 2026-05-05 11:14 | 5.81023 | 8.71012 | 44936 ft | 504 kts | 101° |
| 2026-05-05 11:15 | 5.79700 | 8.77926 | 44932 ft | 504 kts | 101° |
| 2026-05-05 11:15 | 5.78431 | 8.84854 | 44931 ft | 505 kts | 100° |
| 2026-05-05 11:16 | 5.77218 | 8.91793 | 44926 ft | 504 kts | 102° |
| 2026-05-05 11:16 | 5.75910 | 8.98711 | 44923 ft | 504 kts | 98° |
| 2026-05-05 11:17 | 5.74833 | 9.05664 | 44927 ft | 504 kts | 100° |
| 2026-05-05 11:17 | 5.73575 | 9.12584 | 44919 ft | 504 kts | 99° |
| 2026-05-05 11:18 | 5.72645 | 9.18352 | 44923 ft | 504 kts | 99° |
| 2026-05-05 11:18 | 5.71444 | 9.25278 | 44931 ft | 503 kts | 99° |
| 2026-05-05 11:19 | 5.70483 | 9.32229 | 44923 ft | 503 kts | 95° |
| 2026-05-05 11:19 | 5.70187 | 9.39236 | 44929 ft | 502 kts | 90° |
| 2026-05-05 11:20 | 5.69920 | 9.46248 | 44930 ft | 503 kts | 93° |
| 2026-05-05 11:20 | 5.69586 | 9.53261 | 44937 ft | 503 kts | 91° |
| 2026-05-05 11:21 | 5.69323 | 9.60281 | 44952 ft | 503 kts | 92° |
| 2026-05-05 11:21 | 5.68995 | 9.67308 | 44946 ft | 504 kts | 91° |
| 2026-05-05 11:22 | 5.68717 | 9.74342 | 44950 ft | 505 kts | 92° |
| 2026-05-05 11:22 | 5.68400 | 9.81386 | 44966 ft | 505 kts | 92° |
| 2026-05-05 11:23 | 5.68107 | 9.88442 | 44982 ft | 506 kts | 92° |
| 2026-05-05 11:23 | 5.67797 | 9.95499 | 44990 ft | 507 kts | 92° |
| 2026-05-05 11:24 | 5.67495 | 10.02573 | 44999 ft | 507 kts | 92° |
| 2026-05-05 11:24 | 5.67187 | 10.09649 | 44995 ft | 507 kts | 92° |
| 2026-05-05 11:25 | 5.66880 | 10.16722 | 44994 ft | 507 kts | 92° |
| 2026-05-05 11:25 | 5.66572 | 10.23796 | 44994 ft | 507 kts | 92° |
| 2026-05-05 11:26 | 5.66263 | 10.30871 | 44989 ft | 508 kts | 92° |
| 2026-05-05 11:26 | 5.65953 | 10.37956 | 44993 ft | 509 kts | 92° |
| 2026-05-05 11:27 | 5.65641 | 10.45060 | 44995 ft | 510 kts | 92° |
| 2026-05-05 11:27 | 5.65328 | 10.52176 | 44987 ft | 511 kts | 92° |
| 2026-05-05 11:28 | 5.65013 | 10.59307 | 44980 ft | 512 kts | 92° |
| 2026-05-05 11:28 | 5.64697 | 10.66445 | 44977 ft | 512 kts | 92° |
| 2026-05-05 11:29 | 5.64288 | 10.73582 | 44964 ft | 513 kts | 94° |
| 2026-05-05 11:29 | 5.63545 | 10.80700 | 44958 ft | 513 kts | 97° |
| 2026-05-05 11:30 | 5.62297 | 10.87749 | 44969 ft | 513 kts | 99° |
| 2026-05-05 11:30 | 5.61267 | 10.94834 | 44970 ft | 513 kts | 97° |
| 2026-05-05 11:31 | 5.60119 | 11.01906 | 44965 ft | 513 kts | 99° |
| 2026-05-05 11:31 | 5.59023 | 11.08980 | 44964 ft | 513 kts | 97° |
| 2026-05-05 11:32 | 5.57911 | 11.16057 | 44956 ft | 513 kts | 98° |
| 2026-05-05 11:32 | 5.56794 | 11.23131 | 44950 ft | 513 kts | 98° |
| 2026-05-05 11:33 | 5.55689 | 11.30199 | 44939 ft | 512 kts | 98° |
| 2026-05-05 11:33 | 5.54571 | 11.37262 | 44954 ft | 512 kts | 98° |
| 2026-05-05 11:34 | 5.53470 | 11.44282 | 44958 ft | 512 kts | 98° |
| 2026-05-05 11:34 | 5.52353 | 11.51343 | 44962 ft | 512 kts | 98° |
| 2026-05-05 11:35 | 5.51241 | 11.58404 | 44945 ft | 512 kts | 98° |
| 2026-05-05 11:35 | 5.50125 | 11.65461 | 44957 ft | 512 kts | 98° |
| 2026-05-05 11:36 | 5.49010 | 11.72522 | 44943 ft | 512 kts | 98° |
| 2026-05-05 11:36 | 5.47894 | 11.79577 | 44947 ft | 512 kts | 98° |
| 2026-05-05 11:37 | 5.46778 | 11.86628 | 44938 ft | 511 kts | 98° |
| 2026-05-05 11:37 | 5.45662 | 11.93677 | 44946 ft | 511 kts | 98° |
| 2026-05-05 11:38 | 5.44545 | 12.00722 | 44944 ft | 511 kts | 98° |
| 2026-05-05 11:38 | 5.43429 | 12.07757 | 44950 ft | 510 kts | 98° |
| 2026-05-05 11:39 | 5.42311 | 12.14792 | 44949 ft | 510 kts | 98° |
| 2026-05-05 11:39 | 5.41192 | 12.21826 | 44939 ft | 510 kts | 98° |
| 2026-05-05 11:40 | 5.40073 | 12.28862 | 44947 ft | 510 kts | 98° |
| 2026-05-05 11:40 | 5.38953 | 12.35893 | 44934 ft | 510 kts | 98° |
| 2026-05-05 11:41 | 5.37833 | 12.42920 | 44947 ft | 510 kts | 98° |
| 2026-05-05 11:41 | 5.36711 | 12.49952 | 44932 ft | 510 kts | 98° |
| 2026-05-05 11:42 | 5.35589 | 12.56978 | 44950 ft | 510 kts | 98° |
| 2026-05-05 11:42 | 5.34467 | 12.64001 | 44933 ft | 510 kts | 98° |
| 2026-05-05 11:43 | 5.33345 | 12.71024 | 44927 ft | 510 kts | 98° |
| 2026-05-05 11:43 | 5.32222 | 12.78043 | 44929 ft | 509 kts | 98° |
| 2026-05-05 11:44 | 5.31099 | 12.85053 | 44936 ft | 509 kts | 98° |
| 2026-05-05 11:44 | 5.29977 | 12.92059 | 44938 ft | 508 kts | 98° |
| 2026-05-05 11:45 | 5.28854 | 12.99056 | 44929 ft | 508 kts | 98° |
| 2026-05-05 11:45 | 5.27732 | 13.06049 | 44929 ft | 508 kts | 98° |
| 2026-05-05 11:46 | 5.26610 | 13.13039 | 44937 ft | 507 kts | 98° |
| 2026-05-05 11:46 | 5.25487 | 13.20029 | 44921 ft | 507 kts | 98° |
| 2026-05-05 11:47 | 5.24364 | 13.27011 | 44931 ft | 507 kts | 98° |
| 2026-05-05 11:47 | 5.23240 | 13.33993 | 44916 ft | 507 kts | 98° |
| 2026-05-05 11:48 | 5.21553 | 13.44464 | 44935 ft | 507 kts | 98° |
| 2026-05-05 11:48 | 5.20428 | 13.51442 | 44932 ft | 507 kts | 98° |
| 2026-05-05 11:49 | 5.19303 | 13.58418 | 44924 ft | 507 kts | 98° |
| 2026-05-05 11:49 | 5.18175 | 13.65399 | 44923 ft | 507 kts | 98° |
| 2026-05-05 11:50 | 5.17048 | 13.72376 | 44929 ft | 507 kts | 98° |
| 2026-05-05 11:50 | 5.15919 | 13.79360 | 44931 ft | 507 kts | 98° |
| 2026-05-05 11:51 | 5.14790 | 13.86335 | 44932 ft | 507 kts | 98° |
| 2026-05-05 11:51 | 5.13660 | 13.93315 | 44938 ft | 507 kts | 98° |
| 2026-05-05 11:52 | 5.12528 | 14.00298 | 44938 ft | 507 kts | 98° |
| 2026-05-05 11:52 | 5.11394 | 14.07286 | 44933 ft | 508 kts | 98° |
| 2026-05-05 11:53 | 5.10259 | 14.14277 | 44925 ft | 508 kts | 98° |
| 2026-05-05 11:53 | 5.09123 | 14.21271 | 44923 ft | 508 kts | 98° |
| 2026-05-05 11:54 | 5.07986 | 14.28269 | 44920 ft | 508 kts | 98° |
| 2026-05-05 11:54 | 5.06847 | 14.35266 | 44932 ft | 508 kts | 98° |
| 2026-05-05 11:55 | 5.05708 | 14.42264 | 44930 ft | 509 kts | 98° |
| 2026-05-05 11:55 | 5.04567 | 14.49270 | 44926 ft | 509 kts | 98° |
| 2026-05-05 11:56 | 5.03424 | 14.56282 | 44925 ft | 509 kts | 98° |
| 2026-05-05 11:56 | 5.02293 | 14.63213 | 44911 ft | 510 kts | 98° |
| 2026-05-05 11:57 | 5.01148 | 14.70226 | 44913 ft | 510 kts | 98° |
| 2026-05-05 11:57 | 5.00004 | 14.77236 | 44914 ft | 509 kts | 98° |
| 2026-05-05 11:58 | 4.98864 | 14.84206 | 44900 ft | 510 kts | 98° |
| 2026-05-05 11:58 | 4.97717 | 14.91218 | 44915 ft | 510 kts | 98° |
| 2026-05-05 11:59 | 4.96569 | 14.98235 | 44911 ft | 510 kts | 98° |
| 2026-05-05 11:59 | 4.95421 | 15.05242 | 44908 ft | 509 kts | 98° |
| 2026-05-05 12:00 | 4.94271 | 15.12255 | 44908 ft | 509 kts | 98° |
| 2026-05-05 12:00 | 4.93123 | 15.19259 | 44907 ft | 509 kts | 98° |
| 2026-05-05 12:01 | 4.92159 | 15.25134 | 44904 ft | 509 kts | 98° |
| 2026-05-05 12:01 | 4.91008 | 15.32143 | 44903 ft | 509 kts | 98° |
| 2026-05-05 12:02 | 4.89856 | 15.39151 | 44901 ft | 509 kts | 98° |
| 2026-05-05 12:02 | 4.88704 | 15.46154 | 44903 ft | 509 kts | 98° |
| 2026-05-05 12:03 | 4.87552 | 15.53154 | 44898 ft | 509 kts | 98° |
| 2026-05-05 12:03 | 4.86398 | 15.60166 | 44902 ft | 509 kts | 98° |
| 2026-05-05 12:04 | 4.85244 | 15.67168 | 44899 ft | 509 kts | 98° |
| 2026-05-05 12:04 | 4.84098 | 15.74121 | 44906 ft | 509 kts | 99° |
| 2026-05-05 12:05 | 4.82945 | 15.81118 | 44896 ft | 509 kts | 99° |
| 2026-05-05 12:05 | 4.81782 | 15.88166 | 44899 ft | 509 kts | 99° |
| 2026-05-05 12:06 | 4.80627 | 15.95161 | 44904 ft | 509 kts | 99° |
| 2026-05-05 12:06 | 4.79471 | 16.02156 | 44884 ft | 509 kts | 99° |
| 2026-05-05 12:07 | 4.78315 | 16.09149 | 44892 ft | 509 kts | 99° |
| 2026-05-05 12:07 | 4.77158 | 16.16145 | 44888 ft | 508 kts | 99° |
| 2026-05-05 12:08 | 4.76002 | 16.23132 | 44885 ft | 508 kts | 99° |
| 2026-05-05 12:08 | 4.74844 | 16.30124 | 44903 ft | 508 kts | 99° |
| 2026-05-05 12:09 | 4.73687 | 16.37105 | 44899 ft | 508 kts | 99° |
| 2026-05-05 12:09 | 4.72526 | 16.44106 | 44583 ft | 514 kts | 99° |
| 2026-05-05 12:10 | 4.71943 | 16.47621 | 43817 ft | 507 kts | 99° |
| 2026-05-05 12:10 | 4.71359 | 16.51141 | 43143 ft | 517 kts | 99° |
| 2026-05-05 12:10 | 4.70772 | 16.54678 | 42463 ft | 517 kts | 99° |
| 2026-05-05 12:10 | 4.70181 | 16.58232 | 41783 ft | 513 kts | 99° |
| 2026-05-05 12:11 | 4.69590 | 16.61793 | 41113 ft | 518 kts | 99° |
| 2026-05-05 12:11 | 4.68996 | 16.65369 | 40428 ft | 525 kts | 99° |
| 2026-05-05 12:11 | 4.68394 | 16.68987 | 39733 ft | 526 kts | 99° |
| 2026-05-05 12:11 | 4.67792 | 16.72610 | 39039 ft | 528 kts | 99° |
| 2026-05-05 12:12 | 4.67186 | 16.76253 | 38306 ft | 532 kts | 99° |
| 2026-05-05 12:12 | 4.66576 | 16.79913 | 37599 ft | 534 kts | 99° |
| 2026-05-05 12:12 | 4.65964 | 16.83596 | 36895 ft | 537 kts | 99° |
| 2026-05-05 12:12 | 4.65348 | 16.87293 | 36186 ft | 540 kts | 99° |
| 2026-05-05 12:13 | 4.64728 | 16.91015 | 35478 ft | 543 kts | 99° |
| 2026-05-05 12:13 | 4.64104 | 16.94758 | 34761 ft | 545 kts | 99° |
| 2026-05-05 12:13 | 4.63479 | 16.98510 | 34039 ft | 546 kts | 99° |
| 2026-05-05 12:13 | 4.62852 | 17.02271 | 33277 ft | 547 kts | 99° |
| 2026-05-05 12:14 | 4.62227 | 17.06021 | 32556 ft | 546 kts | 99° |
| 2026-05-05 12:14 | 4.61601 | 17.09774 | 31836 ft | 545 kts | 98° |
| 2026-05-05 12:14 | 4.60977 | 17.13509 | 31119 ft | 543 kts | 98° |
| 2026-05-05 12:14 | 4.60354 | 17.17243 | 30400 ft | 542 kts | 98° |
| 2026-05-05 12:15 | 4.59732 | 17.20966 | 29638 ft | 541 kts | 98° |
| 2026-05-05 12:15 | 4.59126 | 17.24589 | 28939 ft | 523 kts | 98° |
| 2026-05-05 12:15 | 4.58530 | 17.28147 | 28255 ft | 514 kts | 98° |
| 2026-05-05 12:15 | 4.57939 | 17.31690 | 27582 ft | 515 kts | 98° |
| 2026-05-05 12:16 | 4.57349 | 17.35219 | 26904 ft | 512 kts | 98° |
| 2026-05-05 12:16 | 4.56761 | 17.38726 | 26234 ft | 507 kts | 99° |
| 2026-05-05 12:16 | 4.56178 | 17.42204 | 25562 ft | 504 kts | 99° |
| 2026-05-05 12:16 | 4.55602 | 17.45646 | 24904 ft | 499 kts | 99° |
| 2026-05-05 12:17 | 4.55031 | 17.49058 | 24250 ft | 494 kts | 99° |
| 2026-05-05 12:17 | 4.54464 | 17.52438 | 23599 ft | 490 kts | 99° |
| 2026-05-05 12:17 | 4.53902 | 17.55785 | 22905 ft | 483 kts | 99° |
| 2026-05-05 12:17 | 4.53349 | 17.59085 | 22274 ft | 478 kts | 99° |
| 2026-05-05 12:18 | 4.52801 | 17.62354 | 21645 ft | 473 kts | 99° |
| 2026-05-05 12:18 | 4.52259 | 17.65584 | 21021 ft | 468 kts | 99° |
| 2026-05-05 12:18 | 4.51723 | 17.68776 | 20411 ft | 463 kts | 99° |
| 2026-05-05 12:18 | 4.51191 | 17.71941 | 19805 ft | 458 kts | 99° |
| 2026-05-05 12:19 | 4.50667 | 17.75066 | 19201 ft | 453 kts | 99° |
| 2026-05-05 12:19 | 4.50147 | 17.78161 | 18606 ft | 448 kts | 99° |
| 2026-05-05 12:19 | 4.49634 | 17.81216 | 17997 ft | 442 kts | 99° |
| 2026-05-05 12:19 | 4.49125 | 17.84235 | 17396 ft | 438 kts | 99° |
| 2026-05-05 12:20 | 4.48622 | 17.87227 | 16820 ft | 433 kts | 98° |
| 2026-05-05 12:20 | 4.48125 | 17.90186 | 16252 ft | 429 kts | 98° |
| 2026-05-05 12:20 | 4.47632 | 17.93120 | 15690 ft | 424 kts | 98° |
| 2026-05-05 12:20 | 4.47144 | 17.96020 | 15130 ft | 420 kts | 98° |
| 2026-05-05 12:21 | 4.46660 | 17.98893 | 14578 ft | 416 kts | 97° |
| 2026-05-05 12:21 | 4.46181 | 18.01740 | 14032 ft | 412 kts | 97° |
| 2026-05-05 12:21 | 4.45706 | 18.04560 | 13464 ft | 408 kts | 97° |
| 2026-05-05 12:21 | 4.45236 | 18.07352 | 12917 ft | 405 kts | 97° |
| 2026-05-05 12:22 | 4.44770 | 18.10122 | 12397 ft | 402 kts | 97° |
| 2026-05-05 12:22 | 4.44307 | 18.12870 | 11860 ft | 399 kts | 97° |
| 2026-05-05 12:22 | 4.43851 | 18.15573 | 11339 ft | 381 kts | 97° |
| 2026-05-05 12:22 | 4.43425 | 18.18069 | 10857 ft | 347 kts | 97° |
| 2026-05-05 12:23 | 4.43038 | 18.20362 | 10415 ft | 321 kts | 97° |
| 2026-05-05 12:23 | 4.42684 | 18.22466 | 10018 ft | 288 kts | 96° |
| 2026-05-05 12:23 | 4.42366 | 18.24342 | 9636 ft | 261 kts | 96° |
| 2026-05-05 12:23 | 4.42063 | 18.26184 | 9266 ft | 267 kts | 96° |
| 2026-05-05 12:24 | 4.42022 | 18.28005 | 8856 ft | 261 kts | 77° |
| 2026-05-05 12:24 | 4.42796 | 18.29625 | 8504 ft | 260 kts | 55° |
| 2026-05-05 12:24 | 4.44054 | 18.30930 | 8202 ft | 262 kts | 41° |
| 2026-05-05 12:24 | 4.45682 | 18.31789 | 7857 ft | 269 kts | 21° |
| 2026-05-05 12:25 | 4.47507 | 18.32184 | 7521 ft | 268 kts | 17° |
| 2026-05-05 12:25 | 4.49255 | 18.32829 | 7174 ft | 267 kts | 26° |
| 2026-05-05 12:25 | 4.50905 | 18.33693 | 6821 ft | 267 kts | 33° |
| 2026-05-05 12:25 | 4.52434 | 18.34730 | 6458 ft | 264 kts | 39° |
| 2026-05-05 12:26 | 4.53850 | 18.35914 | 6097 ft | 265 kts | 45° |
| 2026-05-05 12:26 | 4.55150 | 18.37222 | 5727 ft | 265 kts | 50° |
| 2026-05-05 12:26 | 4.56332 | 18.38644 | 5383 ft | 265 kts | 55° |
| 2026-05-05 12:26 | 4.57374 | 18.40137 | 5037 ft | 257 kts | 60° |
| 2026-05-05 12:27 | 4.58265 | 18.41661 | 4702 ft | 249 kts | 64° |
| 2026-05-05 12:27 | 4.58999 | 18.43170 | 4367 ft | 237 kts | 69° |
| 2026-05-05 12:27 | 4.59605 | 18.44692 | 4145 ft | 236 kts | 72° |
| 2026-05-05 12:27 | 4.60055 | 18.46271 | 3794 ft | 233 kts | 86° |
| 2026-05-05 12:28 | 4.59671 | 18.47780 | 3465 ft | 223 kts | 127° |
| 2026-05-05 12:28 | 4.58449 | 18.48567 | 3429 ft | 202 kts | 170° |
| 2026-05-05 12:28 | 4.57136 | 18.48405 | 3525 ft | 191 kts | 194° |
| 2026-05-05 12:28 | 4.55809 | 18.48137 | 3598 ft | 194 kts | 187° |
| 2026-05-05 12:29 | 4.54524 | 18.48157 | 3575 ft | 178 kts | 173° |
| 2026-05-05 12:29 | 4.53332 | 18.48434 | 3566 ft | 173 kts | 166° |
| 2026-05-05 12:29 | 4.52156 | 18.48756 | 3347 ft | 173 kts | 167° |
| 2026-05-05 12:29 | 4.51052 | 18.49047 | 3144 ft | 158 kts | 168° |
| 2026-05-05 12:30 | 4.50020 | 18.49314 | 2934 ft | 147 kts | 168° |
| 2026-05-05 12:30 | 4.49064 | 18.49563 | 2743 ft | 135 kts | 168° |
| 2026-05-05 12:30 | 4.48176 | 18.49794 | 2583 ft | 131 kts | 167° |
| 2026-05-05 12:30 | 4.47303 | 18.50020 | 2439 ft | 131 kts | 167° |
| 2026-05-05 12:31 | 4.46429 | 18.50278 | 2313 ft | 130 kts | 166° |
| 2026-05-05 12:31 | 4.45544 | 18.50492 | 2128 ft | 130 kts | 169° |
| 2026-05-05 12:31 | 4.44657 | 18.50713 | 1969 ft | 133 kts | 168° |
| 2026-05-05 12:31 | 4.43736 | 18.50936 | 1826 ft | 139 kts | 168° |
| 2026-05-05 12:32 | 4.42793 | 18.51192 | 1626 ft | 143 kts | 167° |
| 2026-05-05 12:32 | 4.41839 | 18.51443 | 1419 ft | 140 kts | 167° |
| 2026-05-05 12:32 | 4.40908 | 18.51682 | 1243 ft | 135 kts | 166° |
| 2026-05-05 12:32 | 4.40073 | 18.51896 | 1204 ft | 110 kts | 165° |
| 2026-05-05 12:33 | 4.39467 | 18.52054 | 1197 ft | 59 kts | 165° |
| 2026-05-05 12:33 | 4.39182 | 18.52127 | 1191 ft | 39 kts | 166° |
| 2026-05-05 12:33 | 4.38925 | 18.52192 | 1188 ft | 35 kts | 166° |
| 2026-05-05 12:33 | 4.38823 | 18.52200 | 1186 ft | 13 kts | 104° |
| 2026-05-05 12:34 | 4.38885 | 18.52211 | 1187 ft | 14 kts | 335° |
| 2026-05-05 12:34 | 4.38996 | 18.52176 | 1189 ft | 20 kts | 343° |
| 2026-05-05 12:34 | 4.39134 | 18.52138 | 1190 ft | 20 kts | 345° |
| 2026-05-05 12:34 | 4.39265 | 18.52105 | 1192 ft | 18 kts | 346° |
| 2026-05-05 12:35 | 4.39381 | 18.52076 | 1196 ft | 17 kts | 346° |
| 2026-05-05 12:35 | 4.39516 | 18.52043 | 1198 ft | 23 kts | 346° |
| 2026-05-05 12:35 | 4.39668 | 18.52003 | 1200 ft | 22 kts | 345° |
| 2026-05-05 12:35 | 4.39786 | 18.52037 | 1200 ft | 19 kts | 70° |
| 2026-05-05 12:36 | 4.39817 | 18.52156 | 1199 ft | 13 kts | 75° |
| 2026-05-05 12:36 | 4.39837 | 18.52233 | 1199 ft | 11 kts | 83° |
| 2026-05-05 12:36 | 4.39798 | 18.52277 | 1198 ft | 8 kts | 165° |
| 2026-05-05 12:36 | 4.39787 | 18.52318 | 1198 ft | 6 kts | 68° |
| 2026-05-05 12:37 | 4.39799 | 18.52356 | 1198 ft | 3 kts | 76° |
| 2026-05-05 12:37 | 4.39799 | 18.52357 | 1198 ft | 0 kts | 76° |